ニース/コート・ダジュール の空港の天気 - METARとTAF

コート・ダジュール空港(ニース) ( LFMN / NCE ) - フランス ニース
飛行場実況気象(Metar)
観測時間01/16 20:30 CET (01/16 19:30 UTC)
風向・風速北北西 4m/s
視程10km以上
天気現象
なし
気温7℃
湿度76%
気圧1024hPa
METARLFMN 161930Z 33007KT CAVOK 07/03 Q1024 NOSIG
過去の天気等 Google飛行場航空写真 Wunderground天気予報

過去48時間のMETAR

飛行場予報(TAF)
発表時間: 1/16 18:54 CET (1/16 17:54 UTC)
予報対象時間: 16日18時 CET ~ 17日22時 CET
風向・風速北北西 5m/s
視程10km以上
なし
16日19時 CET ~ 16日24時 CET に一時的に
風向・風速東北東 5m/s
17日13時 CET ~ 17日15時 CET に徐々に
風向・風速南南西 3m/s
17日18時 CET ~ 17日20時 CET に徐々に
風向・風速北北西 5m/s
TAF AMD LFMN 161754Z 1617/1721 33010KT CAVOK
TEMPO 1618/1623 06010KT
BECMG 1712/1714 21005KT
BECMG 1717/1719 33010KT